createdAt,value
2018-11-29T00:01:16.333Z,29.83
2018-11-29T00:06:21.049Z,33.20
2018-11-29T00:11:35.773Z,32.00
2018-11-29T00:16:40.777Z,33.47
2018-11-29T00:21:50.113Z,31.17
2018-11-29T00:26:57.274Z,31.20
2018-11-29T00:32:06.995Z,30.70
2018-11-29T00:37:12.001Z,30.80
2018-11-29T00:42:16.693Z,33.53
2018-11-29T00:47:25.203Z,29.60
2018-11-29T00:52:30.437Z,30.40
2018-11-29T01:03:07.600Z,27.23
2018-11-29T01:08:13.153Z,26.27
2018-11-29T01:13:18.720Z,27.73
2018-11-29T01:23:55.013Z,23.07
2018-11-29T01:29:00.201Z,22.63
2018-11-29T01:34:05.044Z,25.00
2018-11-29T01:39:10.509Z,21.30
2018-11-29T01:44:15.493Z,23.33
2018-11-29T01:49:21.808Z,21.17
2018-11-29T01:54:26.231Z,22.13
2018-11-29T01:59:31.161Z,20.27
2018-11-29T02:04:35.672Z,21.90
2018-11-29T02:09:40.404Z,20.90
2018-11-29T02:14:45.224Z,20.73
2018-11-29T02:19:49.899Z,19.50
2018-11-29T02:24:54.474Z,20.27
2018-11-29T02:30:21.529Z,19.37
2018-11-29T02:35:28.319Z,19.07
2018-11-29T02:40:46.409Z,17.60
2018-11-29T02:45:51.239Z,19.40
2018-11-29T02:50:56.012Z,17.70
2018-11-29T02:56:00.633Z,15.70
2018-11-29T03:01:27.717Z,20.83
2018-11-29T03:06:32.954Z,19.63
2018-11-29T03:11:37.289Z,14.97
2018-11-29T03:16:42.466Z,16.53
2018-11-29T03:21:47.698Z,17.67
2018-11-29T03:26:51.907Z,15.77
2018-11-29T03:31:56.131Z,17.93
2018-11-29T03:37:01.291Z,15.80
2018-11-29T03:47:38.690Z,15.70
2018-11-29T03:52:44.627Z,18.63
2018-11-29T03:57:54.409Z,16.93
2018-11-29T04:02:59.549Z,18.80
2018-11-29T04:08:05.169Z,14.73
2018-11-29T04:13:09.891Z,19.27
2018-11-29T04:18:19.689Z,16.87
2018-11-29T04:23:24.427Z,17.97
2018-11-29T04:28:51.392Z,17.47
2018-11-29T04:33:56.391Z,16.90
2018-11-29T04:39:08.219Z,15.57
2018-11-29T04:44:12.937Z,17.03
2018-11-29T04:49:17.577Z,16.00
2018-11-29T04:54:22.156Z,15.10
2018-11-29T04:59:27.201Z,16.53
2018-11-29T05:04:31.698Z,15.90
2018-11-29T05:09:36.257Z,22.47
2018-11-29T05:14:40.704Z,16.90
2018-11-29T05:19:45.555Z,18.20
2018-11-29T05:24:50.164Z,16.67
2018-11-29T05:29:55.078Z,16.87
2018-11-29T05:35:01.137Z,13.97
2018-11-29T05:40:09.639Z,15.60
2018-11-29T05:45:15.099Z,16.50
2018-11-29T05:50:25.863Z,12.83
2018-11-29T05:55:31.649Z,14.23
2018-11-29T06:00:36.712Z,13.17
2018-11-29T06:05:43.787Z,14.33
2018-11-29T06:10:48.925Z,14.00
2018-11-29T06:15:53.855Z,15.17
2018-11-29T06:21:00.426Z,12.73
2018-11-29T06:26:05.247Z,13.90
2018-11-29T06:31:10.269Z,13.77
2018-11-29T06:36:14.753Z,14.93
2018-11-29T06:41:19.616Z,16.50
2018-11-29T06:46:25.753Z,14.93
2018-11-29T06:51:29.737Z,13.10
2018-11-29T06:56:34.423Z,14.30
2018-11-29T07:01:40.811Z,13.83
2018-11-29T07:06:46.197Z,18.90
2018-11-29T07:11:50.947Z,16.90
2018-11-29T07:17:00.013Z,15.77
2018-11-29T07:22:04.459Z,13.80
2018-11-29T07:27:12.647Z,15.13
2018-11-29T07:32:18.158Z,14.97
2018-11-29T07:37:22.672Z,16.83
2018-11-29T07:42:27.085Z,18.30
2018-11-29T07:47:31.494Z,11.80
2018-11-29T07:52:36.351Z,14.27
2018-11-29T07:57:40.795Z,13.80
2018-11-29T08:02:45.323Z,13.87
2018-11-29T08:07:55.342Z,16.67
2018-11-29T08:13:00.209Z,18.23
2018-11-29T08:18:05.515Z,19.07
2018-11-29T08:23:11.380Z,18.53
2018-11-29T08:28:25.302Z,14.70
2018-11-29T08:33:30.177Z,11.73
2018-11-29T08:38:39.888Z,16.00
2018-11-29T08:43:44.315Z,15.97
2018-11-29T08:48:49.701Z,14.00
2018-11-29T08:53:55.756Z,18.00
2018-11-29T08:59:00.541Z,13.97
2018-11-29T09:04:05.530Z,14.77
2018-11-29T09:09:09.833Z,17.10
2018-11-29T09:14:15.058Z,15.77
2018-11-29T09:19:19.559Z,14.63
2018-11-29T09:24:24.258Z,15.87
2018-11-29T09:29:29.603Z,14.57
2018-11-29T09:34:34.905Z,16.53
2018-11-29T09:39:40.296Z,14.27
2018-11-29T09:44:45.947Z,13.67
2018-11-29T09:49:50.541Z,14.90
2018-11-29T09:54:55.390Z,14.90
2018-11-29T10:00:00.259Z,15.17
2018-11-29T10:05:05.413Z,16.00
2018-11-29T10:10:12.476Z,13.57
2018-11-29T10:15:17.862Z,14.37
2018-11-29T10:20:22.584Z,11.83
2018-11-29T10:25:27.166Z,15.57
2018-11-29T10:30:36.237Z,14.10
2018-11-29T10:35:40.915Z,11.63
2018-11-29T10:40:46.074Z,9.77
2018-11-29T10:45:50.589Z,12.73
2018-11-29T10:50:54.832Z,12.03
2018-11-29T10:55:59.424Z,14.27
2018-11-29T11:01:09.581Z,13.80
2018-11-29T11:06:14.207Z,9.47
2018-11-29T11:11:21.177Z,11.73
2018-11-29T11:16:26.396Z,11.10
2018-11-29T11:21:36.189Z,11.30
2018-11-29T11:26:40.738Z,10.80
2018-11-29T11:31:46.618Z,11.80
2018-11-29T11:36:51.037Z,12.37
2018-11-29T11:41:55.981Z,12.23
2018-11-29T11:47:00.532Z,11.27
2018-11-29T11:52:05.442Z,9.10
2018-11-29T11:57:09.844Z,9.67
2018-11-29T12:02:14.258Z,13.77
2018-11-29T12:07:19.663Z,15.03
2018-11-29T12:12:25.921Z,12.53
2018-11-29T12:17:31.194Z,11.83
2018-11-29T12:22:35.886Z,13.73
2018-11-29T12:27:40.374Z,15.03
2018-11-29T12:32:47.590Z,13.17
2018-11-29T12:37:53.323Z,15.97
2018-11-29T12:42:57.268Z,12.70
2018-11-29T12:48:01.627Z,15.33
2018-11-29T12:53:06.566Z,14.00
2018-11-29T12:58:10.987Z,18.17
2018-11-29T13:03:15.616Z,17.30
2018-11-29T13:08:23.007Z,15.03
2018-11-29T13:13:27.913Z,15.33
2018-11-29T13:18:33.188Z,16.73
2018-11-29T13:23:37.884Z,15.63
2018-11-29T13:28:42.581Z,21.40
2018-11-29T13:33:47.564Z,20.23
2018-11-29T13:38:52.795Z,25.10
2018-11-29T13:43:57.937Z,18.20
2018-11-29T13:49:03.480Z,20.90
2018-11-29T13:54:07.864Z,21.03
2018-11-29T13:59:18.072Z,19.57
2018-11-29T14:04:22.633Z,19.57
2018-11-29T14:09:26.956Z,19.63
2018-11-29T14:14:32.414Z,17.70
2018-11-29T14:19:36.680Z,18.87
2018-11-29T14:24:40.981Z,20.27
2018-11-29T14:29:45.912Z,17.10
2018-11-29T14:34:53.973Z,17.87
2018-11-29T14:39:58.725Z,21.23
2018-11-29T14:45:03.152Z,22.60
2018-11-29T14:50:16.283Z,22.53
2018-11-29T14:55:21.732Z,20.17
2018-11-29T15:00:30.922Z,21.83
2018-11-29T15:05:35.408Z,24.20
2018-11-29T15:10:39.824Z,25.70
2018-11-29T15:15:44.817Z,19.40
2018-11-29T15:20:50.096Z,21.73
2018-11-29T15:25:55.812Z,19.47
2018-11-29T15:31:00.495Z,20.53
2018-11-29T15:36:05.099Z,20.17
2018-11-29T15:41:09.595Z,19.23
2018-11-29T15:46:14.087Z,21.83
2018-11-29T15:51:23.467Z,22.03
2018-11-29T15:56:28.104Z,17.73
2018-11-29T16:01:32.764Z,18.70
2018-11-29T16:06:41.212Z,20.27
2018-11-29T16:11:45.871Z,20.60
2018-11-29T16:16:50.309Z,20.10
2018-11-29T16:21:55.042Z,20.60
2018-11-29T16:27:00.445Z,20.50
2018-11-29T16:32:14.201Z,22.50
2018-11-29T16:37:19.134Z,20.07
2018-11-29T16:42:28.896Z,21.07
2018-11-29T16:47:33.453Z,21.30
2018-11-29T16:52:38.194Z,35.00
2018-11-29T16:57:48.559Z,23.97
2018-11-29T17:02:53.220Z,29.20
2018-11-29T17:07:58.535Z,25.73
2018-11-29T17:13:05.247Z,26.57
2018-11-29T17:18:09.795Z,26.13
2018-11-29T17:23:15.558Z,23.37
2018-11-29T17:28:21.422Z,25.63
2018-11-29T17:33:27.198Z,29.40
2018-11-29T17:38:45.836Z,26.00
2018-11-29T17:43:50.606Z,30.83
2018-11-29T17:49:01.572Z,27.87
2018-11-29T17:54:06.944Z,28.17
2018-11-29T17:59:12.610Z,26.27
2018-11-29T18:04:17.589Z,31.10
2018-11-29T18:09:27.531Z,30.87
2018-11-29T18:14:32.194Z,28.70
2018-11-29T18:19:47.478Z,26.93
2018-11-29T18:24:52.196Z,26.53
2018-11-29T18:29:56.678Z,29.07
2018-11-29T18:35:04.405Z,29.07
2018-11-29T18:40:14.559Z,29.13
2018-11-29T18:45:29.417Z,32.43
2018-11-29T18:50:40.930Z,27.83
2018-11-29T18:55:46.937Z,27.23
2018-11-29T19:01:05.472Z,27.43
2018-11-29T19:06:10.311Z,29.00
2018-11-29T19:11:14.927Z,28.20
2018-11-29T19:16:20.411Z,32.60
2018-11-29T19:21:25.899Z,28.90
2018-11-29T19:26:31.425Z,29.10
2018-11-29T19:31:38.024Z,30.03
2018-11-29T19:36:43.522Z,29.13
2018-11-29T19:41:50.682Z,30.00
2018-11-29T19:52:09.429Z,25.50
2018-11-29T19:57:13.680Z,27.97
2018-11-29T20:02:18.052Z,29.40
2018-11-29T20:07:22.897Z,27.37
2018-11-29T20:12:28.000Z,30.40
2018-11-29T20:17:32.538Z,24.97
2018-11-29T20:22:37.323Z,29.73
2018-11-29T20:27:43.944Z,26.90
2018-11-29T20:32:49.410Z,25.47
2018-11-29T20:37:55.331Z,23.50
2018-11-29T20:43:00.949Z,26.87
2018-11-29T20:48:17.157Z,26.07
2018-11-29T20:53:24.670Z,27.70
2018-11-29T20:58:30.539Z,23.70
2018-11-29T21:08:55.939Z,25.83
2018-11-29T21:14:00.946Z,27.10
2018-11-29T21:19:05.812Z,28.23
2018-11-29T21:24:10.288Z,28.93
2018-11-29T21:29:15.301Z,24.13
2018-11-29T21:34:20.043Z,23.70
2018-11-29T21:39:24.691Z,25.67
2018-11-29T21:44:29.235Z,25.77
2018-11-29T21:49:34.255Z,26.63
2018-11-29T21:54:39.514Z,26.77
2018-11-29T21:59:44.482Z,27.17
2018-11-29T22:04:50.243Z,28.07
2018-11-29T22:09:55.366Z,25.93
2018-11-29T22:15:01.024Z,25.10
2018-11-29T22:20:05.976Z,26.00
2018-11-29T22:25:11.747Z,26.80
2018-11-29T22:30:17.388Z,27.00
2018-11-29T22:35:24.340Z,27.93
2018-11-29T22:40:40.259Z,28.57
2018-11-29T22:45:46.039Z,30.93
2018-11-29T22:50:56.591Z,27.07
2018-11-29T22:56:03.038Z,23.33
2018-11-29T23:01:13.049Z,24.33
2018-11-29T23:06:17.461Z,22.30
2018-11-29T23:11:26.896Z,28.20
2018-11-29T23:16:32.333Z,25.03
2018-11-29T23:21:37.255Z,22.40
2018-11-29T23:26:41.808Z,27.17
2018-11-29T23:31:46.242Z,21.80
2018-11-29T23:36:50.994Z,23.10
2018-11-29T23:41:56.274Z,21.37
2018-11-29T23:47:00.837Z,23.03
2018-11-29T23:52:10.538Z,24.33
2018-11-29T23:57:15.225Z,25.83
